createdAt,value
2017-04-01T00:00:01.745Z,12.15
2017-04-01T00:00:05.817Z,12.14
2017-04-01T00:00:10.131Z,12.14
2017-04-01T00:00:14.439Z,12.14
2017-04-01T00:00:18.748Z,12.13
2017-04-01T00:00:23.052Z,12.12
2017-04-01T00:00:27.376Z,12.12
2017-04-01T00:00:31.687Z,12.13
2017-04-01T00:00:35.992Z,12.12
2017-04-01T00:00:40.304Z,12.13
2017-04-01T00:00:44.764Z,12.12
2017-04-01T00:00:49.072Z,12.12
2017-04-01T00:00:53.495Z,12.11
2017-04-01T00:00:57.925Z,12.12
2017-04-01T00:01:02.148Z,12.11
2017-04-01T00:01:06.576Z,12.11
2017-04-01T00:01:11.000Z,12.11
2017-04-01T00:01:15.310Z,12.11
2017-04-01T00:01:19.664Z,12.1
2017-04-01T00:01:24.086Z,12.11
2017-04-01T00:01:28.394Z,12.1
2017-04-01T00:01:32.823Z,12.11
2017-04-01T00:01:37.245Z,12.1
2017-04-01T00:01:41.678Z,12.1
2017-04-01T00:01:46.116Z,12.09
2017-04-01T00:01:50.417Z,12.1
2017-04-01T00:01:54.604Z,12.1
2017-04-01T00:01:59.040Z,12.09
2017-04-01T00:02:03.346Z,12.1
2017-04-01T00:02:07.653Z,12.09
2017-04-01T00:02:12.083Z,12.08
2017-04-01T00:02:16.515Z,12.09
2017-04-01T00:02:20.738Z,12.08
2017-04-01T00:02:25.160Z,12.08
2017-04-01T00:02:29.581Z,12.08
2017-04-01T00:02:33.902Z,12.09
2017-04-01T00:02:38.207Z,12.09
2017-04-01T00:02:42.509Z,12.08
2017-04-01T00:02:46.825Z,12.08
2017-04-01T00:02:51.250Z,12.08
2017-04-01T00:02:55.552Z,12.08
2017-04-01T00:02:59.865Z,12.08
2017-04-01T00:03:04.211Z,12.08
2017-04-01T00:03:08.634Z,12.07
2017-04-01T00:03:13.064Z,12.08
2017-04-01T00:03:17.386Z,12.07
2017-04-01T00:03:21.582Z,12.07
2017-04-01T00:03:26.014Z,12.07
2017-04-01T00:03:30.441Z,12.07
2017-04-01T00:03:34.759Z,12.06
2017-04-01T00:03:39.187Z,12.06
2017-04-01T00:03:43.614Z,12.06
2017-04-01T00:03:48.040Z,12.06
2017-04-01T00:03:52.501Z,12.05
2017-04-01T00:03:56.927Z,12.05
2017-04-01T00:04:01.351Z,12.06
2017-04-01T00:04:05.659Z,12.06
2017-04-01T00:04:10.086Z,12.04
2017-04-01T00:04:14.507Z,12.04
2017-04-01T00:04:18.935Z,12.05
2017-04-01T00:04:23.371Z,12.04
2017-04-01T00:04:27.599Z,12.04
2017-04-01T00:04:32.025Z,12.04
2017-04-01T00:04:36.451Z,12.03
2017-04-01T00:04:40.794Z,12.04
2017-04-01T00:04:45.217Z,12.03
2017-04-01T00:04:49.650Z,12.03
2017-04-01T00:04:53.960Z,12.03
2017-04-01T00:04:58.386Z,12.03
2017-04-01T00:05:02.696Z,12.03
2017-04-01T00:05:06.885Z,12.03
2017-04-01T00:05:11.310Z,12.03
2017-04-01T00:05:15.510Z,12.03
2017-04-01T00:05:19.706Z,12.02
2017-04-01T00:05:23.778Z,12.01
2017-04-01T00:05:28.088Z,12.01
2017-04-01T00:05:32.412Z,12.02
2017-04-01T00:05:36.611Z,12.02
2017-04-01T00:05:40.800Z,12.01
2017-04-01T00:05:45.115Z,12.01
2017-04-01T00:05:49.307Z,12.01
2017-04-01T00:05:53.612Z,12.02
2017-04-01T00:05:58.042Z,12.02
2017-04-01T00:06:02.456Z,12.02
2017-04-01T00:06:06.771Z,12.02
2017-04-01T00:06:11.078Z,12.02
2017-04-01T00:06:15.508Z,12.01
2017-04-01T00:06:19.932Z,12.01
2017-04-01T00:06:24.274Z,12.01
2017-04-01T00:06:28.585Z,12.01
2017-04-01T00:06:32.660Z,12.02
2017-04-01T00:06:36.969Z,12.01
2017-04-01T00:06:41.312Z,12.01
2017-04-01T00:06:45.503Z,12.01
2017-04-01T00:06:49.924Z,12.01
2017-04-01T00:06:54.233Z,12.02
2017-04-01T00:06:58.565Z,12.03
2017-04-01T00:07:02.993Z,12.01
2017-04-01T00:07:07.305Z,12.01
2017-04-01T00:07:11.391Z,12.01
2017-04-01T00:07:15.599Z,12.02
2017-04-01T00:07:19.915Z,12.03
2017-04-01T00:07:24.346Z,12.04
2017-04-01T00:07:28.417Z,12.03
2017-04-01T00:07:32.648Z,12.02
2017-04-01T00:07:37.075Z,12.02
2017-04-01T00:07:41.388Z,12.03
2017-04-01T00:07:45.811Z,12.03
2017-04-01T00:07:50.241Z,12.03
2017-04-01T00:07:54.550Z,12.02
2017-04-01T00:07:58.854Z,12.03
2017-04-01T00:08:03.366Z,12.03
2017-04-01T00:08:07.562Z,12.03
2017-04-01T00:08:11.870Z,12.04
2017-04-01T00:08:16.058Z,12.04
2017-04-01T00:08:20.476Z,12.05
2017-04-01T00:08:24.436Z,12.04
2017-04-01T00:08:28.897Z,12.05
2017-04-01T00:08:33.094Z,12.04
2017-04-01T00:08:37.624Z,12.05
2017-04-01T00:08:41.953Z,12.05
2017-04-01T00:08:46.263Z,12.04
2017-04-01T00:08:50.684Z,12.04
2017-04-01T00:08:54.987Z,12.05
2017-04-01T00:08:59.186Z,12.06
2017-04-01T00:09:03.654Z,12.06
2017-04-01T00:09:07.725Z,12.06
2017-04-01T00:09:12.032Z,12.07
2017-04-01T00:09:16.343Z,12.06
2017-04-01T00:09:20.660Z,12.06
2017-04-01T00:09:25.103Z,12.06
2017-04-01T00:09:29.296Z,12.06
2017-04-01T00:09:33.612Z,12.07
2017-04-01T00:09:38.047Z,12.07
2017-04-01T00:09:42.507Z,12.07
2017-04-01T00:09:46.701Z,12.07
2017-04-01T00:09:51.007Z,12.07
2017-04-01T00:09:55.438Z,12.08
2017-04-01T00:09:59.746Z,12.08
2017-04-01T00:10:04.170Z,12.08
2017-04-01T00:10:08.374Z,12.09
2017-04-01T00:10:12.684Z,12.08
2017-04-01T00:10:16.996Z,12.08
2017-04-01T00:10:21.194Z,12.09
2017-04-01T00:10:25.504Z,12.09
2017-04-01T00:10:29.979Z,12.09
2017-04-01T00:10:34.172Z,12.09
2017-04-01T00:10:38.606Z,12.1
2017-04-01T00:10:43.032Z,12.1
2017-04-01T00:10:47.342Z,12.1
2017-04-01T00:10:51.654Z,12.1
2017-04-01T00:10:56.075Z,12.1
2017-04-01T00:11:00.390Z,12.1
2017-04-01T00:11:04.820Z,12.11
2017-04-01T00:11:08.780Z,12.1
2017-04-01T00:11:12.966Z,12.1
2017-04-01T00:11:17.273Z,12.1
2017-04-01T00:11:21.699Z,12.11
2017-04-01T00:11:26.123Z,12.12
2017-04-01T00:11:30.314Z,12.11
2017-04-01T00:11:34.740Z,12.12
2017-04-01T00:11:39.169Z,12.12
2017-04-01T00:11:43.590Z,12.12
2017-04-01T00:11:48.013Z,12.12
2017-04-01T00:11:52.442Z,12.11
2017-04-01T00:11:56.759Z,12.12
2017-04-01T00:12:01.064Z,12.11
2017-04-01T00:12:05.571Z,12.12
2017-04-01T00:12:09.886Z,12.13
2017-04-01T00:12:14.230Z,12.12
2017-04-01T00:12:18.654Z,12.12
2017-04-01T00:12:22.974Z,12.12
2017-04-01T00:12:27.299Z,12.12
2017-04-01T00:12:31.739Z,12.12
2017-04-01T00:12:36.056Z,12.12
2017-04-01T00:12:40.372Z,12.12
2017-04-01T00:12:44.796Z,12.13
2017-04-01T00:12:49.114Z,12.12
2017-04-01T00:12:53.535Z,12.12
2017-04-01T00:12:57.962Z,12.12
2017-04-01T00:13:02.443Z,12.11
2017-04-01T00:13:06.635Z,12.12
2017-04-01T00:13:11.057Z,12.12
2017-04-01T00:13:15.475Z,12.11
2017-04-01T00:13:19.908Z,12.11
2017-04-01T00:13:24.337Z,12.11
2017-04-01T00:13:28.642Z,12.11
2017-04-01T00:13:32.953Z,12.12
2017-04-01T00:13:37.377Z,12.11
2017-04-01T00:13:41.800Z,12.12
2017-04-01T00:13:45.994Z,12.12
2017-04-01T00:13:50.413Z,12.12
2017-04-01T00:13:54.718Z,12.11
2017-04-01T00:13:59.145Z,12.12
2017-04-01T00:14:03.549Z,12.1
2017-04-01T00:14:07.977Z,12.11
2017-04-01T00:14:12.408Z,12.11
2017-04-01T00:14:16.747Z,12.11
2017-04-01T00:14:21.169Z,12.11
2017-04-01T00:14:25.356Z,12.11
2017-04-01T00:14:29.796Z,12.11
2017-04-01T00:14:33.869Z,12.1
2017-04-01T00:14:38.295Z,12.1
2017-04-01T00:14:42.481Z,12.1
2017-04-01T00:14:46.912Z,12.11
2017-04-01T00:14:51.217Z,12.11
2017-04-01T00:14:55.407Z,12.1
2017-04-01T00:14:59.718Z,12.11
2017-04-01T00:15:04.400Z,12.1
2017-04-01T00:15:08.827Z,12.09
2017-04-01T00:15:13.259Z,12.1
2017-04-01T00:15:17.573Z,12.1
2017-04-01T00:15:21.888Z,12.1
2017-04-01T00:15:26.320Z,12.09
2017-04-01T00:15:30.754Z,12.09
2017-04-01T00:15:35.176Z,12.09
2017-04-01T00:15:39.608Z,12.09
2017-04-01T00:15:44.036Z,12.09
2017-04-01T00:15:48.461Z,12.09
2017-04-01T00:15:52.651Z,12.09
2017-04-01T00:15:57.087Z,12.08
2017-04-01T00:16:01.710Z,12.08
2017-04-01T00:16:06.139Z,12.08
2017-04-01T00:16:10.326Z,12.09
2017-04-01T00:16:14.759Z,12.08
2017-04-01T00:16:19.107Z,12.08
2017-04-01T00:16:23.408Z,12.07
2017-04-01T00:16:27.731Z,12.07
2017-04-01T00:16:32.162Z,12.07
2017-04-01T00:16:36.582Z,12.07
2017-04-01T00:16:41.005Z,12.08
2017-04-01T00:16:45.433Z,12.06
2017-04-01T00:16:49.744Z,12.06
2017-04-01T00:16:53.930Z,12.06
2017-04-01T00:16:58.357Z,12.07
2017-04-01T00:17:02.831Z,12.07
2017-04-01T00:17:07.149Z,12.06
2017-04-01T00:17:11.578Z,12.05
2017-04-01T00:17:16.000Z,12.06
2017-04-01T00:17:20.307Z,12.05
2017-04-01T00:17:24.626Z,12.05
2017-04-01T00:17:29.048Z,12.05
2017-04-01T00:17:33.358Z,12.04
2017-04-01T00:17:37.785Z,12.04
2017-04-01T00:17:41.998Z,12.04
2017-04-01T00:17:46.305Z,12.04
2017-04-01T00:17:50.732Z,12.03
2017-04-01T00:17:55.038Z,12.03
2017-04-01T00:17:59.463Z,12.03
2017-04-01T00:18:04.190Z,12.03
2017-04-01T00:18:08.260Z,12.02
2017-04-01T00:18:12.688Z,12.02
2017-04-01T00:18:17.121Z,12.01
2017-04-01T00:18:21.429Z,12.01
2017-04-01T00:18:25.734Z,12.01
2017-04-01T00:18:29.925Z,12.01
2017-04-01T00:18:34.346Z,12
2017-04-01T00:18:38.768Z,12
2017-04-01T00:18:43.079Z,11.99
2017-04-01T00:18:47.510Z,11.99
2017-04-01T00:18:51.934Z,12
2017-04-01T00:18:56.130Z,11.99
2017-04-01T00:19:00.554Z,11.99
2017-04-01T00:19:04.986Z,11.98
2017-04-01T00:19:09.292Z,11.98
2017-04-01T00:19:13.715Z,11.99
2017-04-01T00:19:18.019Z,11.98
2017-04-01T00:19:22.455Z,11.97
2017-04-01T00:19:26.876Z,11.97
2017-04-01T00:19:31.066Z,11.97
2017-04-01T00:19:35.370Z,11.97
2017-04-01T00:19:39.795Z,11.97
2017-04-01T00:19:44.215Z,11.96
2017-04-01T00:19:48.522Z,11.96
2017-04-01T00:19:52.956Z,11.95
2017-04-01T00:19:57.381Z,11.95
2017-04-01T00:20:01.806Z,11.94
2017-04-01T00:20:06.232Z,11.94
2017-04-01T00:20:10.669Z,11.94
2017-04-01T00:20:15.090Z,11.94
2017-04-01T00:20:19.514Z,11.92
2017-04-01T00:20:23.830Z,11.92
2017-04-01T00:20:28.180Z,11.93
2017-04-01T00:20:32.376Z,11.93
2017-04-01T00:20:36.814Z,11.92
2017-04-01T00:20:41.041Z,11.92
2017-04-01T00:20:45.352Z,11.91
2017-04-01T00:20:49.776Z,11.91
2017-04-01T00:20:54.207Z,11.9
2017-04-01T00:20:58.669Z,11.9
2017-04-01T00:21:03.226Z,11.9
2017-04-01T00:21:07.531Z,11.9
2017-04-01T00:21:11.960Z,11.88
2017-04-01T00:21:16.389Z,11.89
2017-04-01T00:21:20.809Z,11.88
2017-04-01T00:21:25.111Z,11.88
2017-04-01T00:21:29.550Z,11.87
2017-04-01T00:21:33.980Z,11.88
2017-04-01T00:21:38.404Z,11.86
2017-04-01T00:21:42.828Z,11.87
2017-04-01T00:21:47.143Z,11.86
2017-04-01T00:21:51.570Z,11.86
2017-04-01T00:21:55.993Z,11.86
2017-04-01T00:22:00.418Z,11.85
2017-04-01T00:22:04.978Z,11.84
2017-04-01T00:22:09.456Z,11.84
2017-04-01T00:22:13.764Z,11.83
2017-04-01T00:22:17.835Z,11.83
2017-04-01T00:22:22.262Z,11.83
2017-04-01T00:22:26.729Z,11.83
2017-04-01T00:22:31.154Z,11.83
2017-04-01T00:22:35.573Z,11.83
2017-04-01T00:22:39.912Z,11.82
2017-04-01T00:22:44.332Z,11.82
2017-04-01T00:22:48.635Z,11.82
2017-04-01T00:22:53.059Z,11.81
2017-04-01T00:22:57.488Z,11.81
2017-04-01T00:23:01.918Z,11.81
2017-04-01T00:23:06.224Z,11.81
2017-04-01T00:23:10.656Z,11.81
2017-04-01T00:23:14.973Z,11.81
2017-04-01T00:23:19.162Z,11.81
2017-04-01T00:23:23.581Z,11.81
2017-04-01T00:23:27.999Z,11.8
2017-04-01T00:23:32.191Z,11.8
2017-04-01T00:23:36.495Z,11.8
2017-04-01T00:23:40.811Z,11.8
2017-04-01T00:23:45.232Z,11.79
2017-04-01T00:23:49.426Z,11.8
2017-04-01T00:23:53.851Z,11.8
2017-04-01T00:23:58.156Z,11.8
2017-04-01T00:24:02.475Z,11.8
2017-04-01T00:24:06.946Z,11.79
2017-04-01T00:24:11.140Z,11.8
2017-04-01T00:24:15.452Z,11.8
2017-04-01T00:24:19.876Z,11.79
2017-04-01T00:24:24.307Z,11.79
2017-04-01T00:24:28.646Z,11.79
2017-04-01T00:24:32.960Z,11.79
2017-04-01T00:24:37.386Z,11.79
2017-04-01T00:24:41.686Z,11.79
2017-04-01T00:24:45.994Z,11.79
2017-04-01T00:24:50.418Z,11.79
2017-04-01T00:24:54.843Z,11.78
2017-04-01T00:24:59.265Z,11.79
2017-04-01T00:25:03.453Z,11.79
2017-04-01T00:25:07.756Z,11.78
2017-04-01T00:25:11.952Z,11.78
2017-04-01T00:25:16.271Z,11.78
2017-04-01T00:25:20.575Z,11.78
2017-04-01T00:25:24.997Z,11.78
2017-04-01T00:25:29.419Z,11.78
2017-04-01T00:25:33.847Z,11.78
2017-04-01T00:25:38.151Z,11.77
2017-04-01T00:25:42.571Z,11.78
2017-04-01T00:25:46.992Z,11.78
2017-04-01T00:25:51.468Z,11.78
2017-04-01T00:25:55.775Z,11.77
2017-04-01T00:26:00.084Z,11.77
2017-04-01T00:26:04.517Z,11.77
2017-04-01T00:26:08.986Z,11.76
2017-04-01T00:26:13.412Z,11.77
2017-04-01T00:26:17.603Z,11.76
2017-04-01T00:26:21.922Z,11.77
2017-04-01T00:26:26.357Z,11.76
2017-04-01T00:26:30.544Z,11.75
2017-04-01T00:26:34.846Z,11.76
2017-04-01T00:26:39.273Z,11.76
2017-04-01T00:26:43.630Z,11.76
2017-04-01T00:26:47.820Z,11.76
2017-04-01T00:26:52.122Z,11.75
2017-04-01T00:26:56.432Z,11.76
2017-04-01T00:27:00.855Z,11.75
2017-04-01T00:27:05.166Z,11.74
2017-04-01T00:27:09.471Z,11.75
2017-04-01T00:27:13.903Z,11.74
2017-04-01T00:27:18.251Z,11.75
2017-04-01T00:27:22.679Z,11.74
2017-04-01T00:27:27.116Z,11.74
2017-04-01T00:27:31.541Z,11.74
2017-04-01T00:27:35.979Z,11.72
2017-04-01T00:27:40.400Z,11.74
2017-04-01T00:27:44.587Z,11.74
2017-04-01T00:27:49.012Z,11.73
2017-04-01T00:27:53.317Z,11.74
2017-04-01T00:27:57.740Z,11.72
2017-04-01T00:28:02.401Z,11.72
2017-04-01T00:28:06.836Z,11.72
2017-04-01T00:28:11.181Z,11.72
2017-04-01T00:28:15.604Z,11.71
2017-04-01T00:28:19.790Z,11.71
2017-04-01T00:28:24.110Z,11.71
2017-04-01T00:28:28.542Z,11.71
2017-04-01T00:28:32.726Z,11.71
2017-04-01T00:28:37.034Z,11.7
2017-04-01T00:28:41.264Z,11.7
2017-04-01T00:28:45.577Z,11.7
2017-04-01T00:28:49.880Z,11.7
2017-04-01T00:28:54.307Z,11.69
2017-04-01T00:28:58.646Z,11.68
2017-04-01T00:29:03.106Z,11.68
2017-04-01T00:29:07.531Z,11.68
2017-04-01T00:29:11.955Z,11.68
2017-04-01T00:29:16.266Z,11.66
2017-04-01T00:29:20.685Z,11.67
2017-04-01T00:29:24.999Z,11.67
2017-04-01T00:29:29.423Z,11.66
2017-04-01T00:29:33.850Z,11.66
2017-04-01T00:29:38.152Z,11.65
2017-04-01T00:29:42.464Z,11.66
2017-04-01T00:29:46.888Z,11.65
2017-04-01T00:29:51.241Z,11.65
2017-04-01T00:29:55.667Z,11.64
2017-04-01T00:30:00.087Z,11.64
2017-04-01T00:30:04.400Z,11.63
2017-04-01T00:30:08.712Z,11.64
2017-04-01T00:30:13.016Z,11.61
2017-04-01T00:30:17.322Z,11.62
2017-04-01T00:30:21.630Z,11.62
2017-04-01T00:30:25.829Z,11.62
2017-04-01T00:30:30.139Z,11.61
2017-04-01T00:30:34.441Z,11.61
2017-04-01T00:30:38.751Z,11.61
2017-04-01T00:30:43.177Z,11.6
2017-04-01T00:30:47.484Z,11.59
2017-04-01T00:30:51.909Z,11.59
2017-04-01T00:30:56.345Z,11.59
2017-04-01T00:31:00.653Z,11.59
2017-04-01T00:31:05.335Z,11.58
2017-04-01T00:31:09.642Z,11.58
2017-04-01T00:31:14.067Z,11.57
2017-04-01T00:31:18.379Z,11.57
2017-04-01T00:31:22.809Z,11.56
2017-04-01T00:31:27.230Z,11.55
2017-04-01T00:31:31.546Z,11.55
2017-04-01T00:31:35.869Z,11.55
2017-04-01T00:31:40.291Z,11.55
2017-04-01T00:31:44.599Z,11.54
2017-04-01T00:31:48.942Z,11.53
2017-04-01T00:31:53.368Z,11.54
2017-04-01T00:31:57.677Z,11.54
2017-04-01T00:32:02.109Z,11.52
2017-04-01T00:32:06.314Z,11.53
2017-04-01T00:32:10.740Z,11.52
2017-04-01T00:32:15.168Z,11.52
2017-04-01T00:32:19.355Z,11.51
2017-04-01T00:32:23.433Z,11.51
2017-04-01T00:32:27.636Z,11.52
2017-04-01T00:32:32.061Z,11.5
2017-04-01T00:32:36.479Z,11.5
2017-04-01T00:32:40.900Z,11.5
2017-04-01T00:32:45.211Z,11.5
2017-04-01T00:32:49.518Z,11.49
2017-04-01T00:32:53.823Z,11.48
2017-04-01T00:32:58.256Z,11.48
2017-04-01T00:33:02.683Z,11.47
2017-04-01T00:33:06.993Z,11.47
2017-04-01T00:33:11.416Z,11.48
2017-04-01T00:33:15.846Z,11.46
2017-04-01T00:33:20.278Z,11.46
2017-04-01T00:33:24.582Z,11.46
2017-04-01T00:33:28.892Z,11.46
2017-04-01T00:33:33.120Z,11.44
2017-04-01T00:33:37.546Z,11.45
2017-04-01T00:33:41.742Z,11.44
2017-04-01T00:33:46.169Z,11.44
2017-04-01T00:33:50.638Z,11.44
2017-04-01T00:33:55.061Z,11.44
2017-04-01T00:33:59.487Z,11.43
2017-04-01T00:34:04.065Z,11.43
2017-04-01T00:34:08.253Z,11.42
2017-04-01T00:34:12.449Z,11.42
2017-04-01T00:34:16.871Z,11.42
2017-04-01T00:34:21.098Z,11.42
2017-04-01T00:34:25.539Z,11.41
2017-04-01T00:34:29.843Z,11.41
2017-04-01T00:34:34.274Z,11.41
2017-04-01T00:34:38.698Z,11.4
2017-04-01T00:34:43.124Z,11.4
2017-04-01T00:34:47.548Z,11.39
2017-04-01T00:34:51.855Z,11.39
2017-04-01T00:34:56.286Z,11.38
2017-04-01T00:35:00.743Z,11.38
2017-04-01T00:35:04.934Z,11.38
2017-04-01T00:35:09.248Z,11.38
2017-04-01T00:35:13.721Z,11.38
2017-04-01T00:35:18.030Z,11.37
2017-04-01T00:35:22.220Z,11.37
2017-04-01T00:35:26.641Z,11.36
2017-04-01T00:35:30.833Z,11.36
2017-04-01T00:35:35.255Z,11.36
2017-04-01T00:35:39.673Z,11.35
2017-04-01T00:35:44.095Z,11.35
2017-04-01T00:35:48.401Z,11.35
2017-04-01T00:35:52.829Z,11.35
2017-04-01T00:35:57.252Z,11.34
2017-04-01T00:36:01.727Z,11.34
2017-04-01T00:36:06.038Z,11.33
2017-04-01T00:36:10.223Z,11.34
2017-04-01T00:36:14.528Z,11.33
2017-04-01T00:36:18.716Z,11.32
2017-04-01T00:36:23.162Z,11.32
2017-04-01T00:36:27.584Z,11.32
2017-04-01T00:36:32.013Z,11.32
2017-04-01T00:36:36.324Z,11.32
2017-04-01T00:36:40.519Z,11.31
2017-04-01T00:36:44.947Z,11.31
2017-04-01T00:36:49.254Z,11.31
2017-04-01T00:36:53.681Z,11.31
2017-04-01T00:36:58.104Z,11.31
2017-04-01T00:37:02.639Z,11.31
2017-04-01T00:37:06.953Z,11.31
2017-04-01T00:37:11.372Z,11.3
2017-04-01T00:37:15.800Z,11.3
2017-04-01T00:37:20.109Z,11.29
2017-04-01T00:37:24.427Z,11.3
2017-04-01T00:37:28.856Z,11.3
2017-04-01T00:37:33.283Z,11.29
2017-04-01T00:37:37.710Z,11.29
2017-04-01T00:37:42.015Z,11.28
2017-04-01T00:37:46.437Z,11.28
2017-04-01T00:37:50.513Z,11.28
2017-04-01T00:37:54.819Z,11.28
2017-04-01T00:37:59.241Z,11.28
2017-04-01T00:38:03.969Z,11.28
2017-04-01T00:38:08.399Z,11.28
2017-04-01T00:38:12.861Z,11.28
2017-04-01T00:38:17.161Z,11.28
2017-04-01T00:38:21.468Z,11.28
2017-04-01T00:38:25.778Z,11.27
2017-04-01T00:38:30.086Z,11.27
2017-04-01T00:38:34.517Z,11.27
2017-04-01T00:38:38.948Z,11.27
2017-04-01T00:38:43.184Z,11.26
2017-04-01T00:38:47.609Z,11.25
2017-04-01T00:38:52.037Z,11.26
2017-04-01T00:38:56.460Z,11.25
2017-04-01T00:39:00.764Z,11.26
2017-04-01T00:39:05.087Z,11.25
2017-04-01T00:39:09.406Z,11.26
2017-04-01T00:39:13.711Z,11.25
2017-04-01T00:39:18.147Z,11.25
2017-04-01T00:39:22.451Z,11.25
2017-04-01T00:39:26.754Z,11.25
2017-04-01T00:39:31.063Z,11.24
2017-04-01T00:39:35.389Z,11.24
2017-04-01T00:39:39.816Z,11.23
2017-04-01T00:39:44.010Z,11.24
2017-04-01T00:39:48.441Z,11.23
2017-04-01T00:39:52.870Z,11.24
2017-04-01T00:39:57.295Z,11.23
2017-04-01T00:40:01.717Z,11.23
2017-04-01T00:40:05.909Z,11.22
2017-04-01T00:40:10.336Z,11.22
2017-04-01T00:40:14.760Z,11.23
2017-04-01T00:40:19.070Z,11.22
2017-04-01T00:40:23.500Z,11.22
2017-04-01T00:40:27.942Z,11.22
2017-04-01T00:40:32.246Z,11.22
2017-04-01T00:40:36.565Z,11.22
2017-04-01T00:40:40.642Z,11.22
2017-04-01T00:40:45.063Z,11.22
2017-04-01T00:40:49.490Z,11.21
2017-04-01T00:40:53.920Z,11.21
2017-04-01T00:40:58.233Z,11.21
2017-04-01T00:41:02.654Z,11.2
2017-04-01T00:41:06.969Z,11.21
2017-04-01T00:41:11.394Z,11.2
2017-04-01T00:41:15.830Z,11.2
2017-04-01T00:41:20.254Z,11.2
2017-04-01T00:41:24.444Z,11.19
2017-04-01T00:41:28.761Z,11.19
2017-04-01T00:41:32.953Z,11.19
2017-04-01T00:41:37.260Z,11.19
2017-04-01T00:41:41.570Z,11.19
2017-04-01T00:41:45.883Z,11.18
2017-04-01T00:41:50.308Z,11.18
2017-04-01T00:41:54.618Z,11.17
2017-04-01T00:41:59.054Z,11.18
2017-04-01T00:42:03.616Z,11.18
2017-04-01T00:42:07.921Z,11.18
2017-04-01T00:42:12.344Z,11.17
2017-04-01T00:42:16.772Z,11.16
2017-04-01T00:42:21.243Z,11.17
2017-04-01T00:42:25.560Z,11.16
2017-04-01T00:42:29.635Z,11.17
2017-04-01T00:42:33.940Z,11.17
2017-04-01T00:42:38.406Z,11.16
2017-04-01T00:42:42.593Z,11.16
2017-04-01T00:42:46.893Z,11.16
2017-04-01T00:42:51.320Z,11.16
2017-04-01T00:42:55.749Z,11.15
2017-04-01T00:43:00.180Z,11.15
2017-04-01T00:43:04.587Z,11.15
2017-04-01T00:43:09.010Z,11.15
2017-04-01T00:43:13.439Z,11.14
2017-04-01T00:43:17.866Z,11.15
2017-04-01T00:43:22.283Z,11.14
2017-04-01T00:43:26.705Z,11.15
2017-04-01T00:43:31.020Z,11.14
2017-04-01T00:43:35.476Z,11.14
2017-04-01T00:43:39.782Z,11.14
2017-04-01T00:43:44.084Z,11.13
2017-04-01T00:43:48.513Z,11.13
2017-04-01T00:43:52.819Z,11.13
2017-04-01T00:43:57.241Z,11.13
2017-04-01T00:44:01.661Z,11.12
2017-04-01T00:44:06.092Z,11.12
2017-04-01T00:44:10.523Z,11.12
2017-04-01T00:44:14.947Z,11.12
2017-04-01T00:44:19.259Z,11.12
2017-04-01T00:44:23.721Z,11.12
2017-04-01T00:44:27.794Z,11.12
2017-04-01T00:44:32.215Z,11.11
2017-04-01T00:44:36.537Z,11.11
2017-04-01T00:44:40.875Z,11.11
2017-04-01T00:44:45.191Z,11.11
2017-04-01T00:44:49.611Z,11.1
2017-04-01T00:44:53.921Z,11.1
2017-04-01T00:44:58.233Z,11.1
2017-04-01T00:45:02.836Z,11.1
2017-04-01T00:45:07.026Z,11.1
2017-04-01T00:45:11.450Z,11.11
2017-04-01T00:45:15.762Z,11.1
2017-04-01T00:45:20.190Z,11.1
2017-04-01T00:45:24.497Z,11.09
2017-04-01T00:45:28.816Z,11.09
2017-04-01T00:45:33.129Z,11.09
2017-04-01T00:45:37.560Z,11.09
2017-04-01T00:45:41.985Z,11.08
2017-04-01T00:45:46.406Z,11.09
2017-04-01T00:45:50.833Z,11.09
2017-04-01T00:45:55.265Z,11.08
2017-04-01T00:45:59.455Z,11.08
2017-04-01T00:46:04.181Z,11.09
2017-04-01T00:46:08.375Z,11.08
2017-04-01T00:46:12.803Z,11.08
2017-04-01T00:46:17.108Z,11.08
2017-04-01T00:46:21.423Z,11.07
2017-04-01T00:46:25.743Z,11.08
2017-04-01T00:46:30.054Z,11.07
2017-04-01T00:46:34.369Z,11.07
2017-04-01T00:46:38.788Z,11.08
2017-04-01T00:46:43.093Z,11.07
2017-04-01T00:46:47.526Z,11.07
2017-04-01T00:46:51.952Z,11.07
2017-04-01T00:46:56.373Z,11.06
2017-04-01T00:47:00.454Z,11.06
2017-04-01T00:47:04.650Z,11.07
2017-04-01T00:47:08.953Z,11.06
2017-04-01T00:47:13.261Z,11.06
2017-04-01T00:47:17.692Z,11.07
2017-04-01T00:47:22.118Z,11.07
2017-04-01T00:47:26.462Z,11.06
2017-04-01T00:47:30.768Z,11.06
2017-04-01T00:47:35.074Z,11.06
2017-04-01T00:47:39.498Z,11.05
2017-04-01T00:47:43.812Z,11.06
2017-04-01T00:47:48.121Z,11.06
2017-04-01T00:47:52.430Z,11.05
2017-04-01T00:47:56.742Z,11.05
2017-04-01T00:48:01.172Z,11.05
2017-04-01T00:48:05.625Z,11.05
2017-04-01T00:48:09.928Z,11.05
2017-04-01T00:48:14.352Z,11.05
2017-04-01T00:48:18.663Z,11.04
2017-04-01T00:48:22.734Z,11.04
2017-04-01T00:48:27.049Z,11.05
2017-04-01T00:48:31.248Z,11.04
2017-04-01T00:48:35.670Z,11.04
2017-04-01T00:48:40.109Z,11.04
2017-04-01T00:48:44.531Z,11.03
2017-04-01T00:48:48.716Z,11.04
2017-04-01T00:48:53.137Z,11.03
2017-04-01T00:48:57.572Z,11.03
2017-04-01T00:49:01.998Z,11.03
2017-04-01T00:49:06.421Z,11.03
2017-04-01T00:49:10.742Z,11.03
2017-04-01T00:49:15.202Z,11.03
2017-04-01T00:49:19.628Z,11.02
2017-04-01T00:49:24.106Z,11.03
2017-04-01T00:49:28.530Z,11.03
2017-04-01T00:49:32.840Z,11.02
2017-04-01T00:49:37.153Z,11.03
2017-04-01T00:49:41.580Z,11.02
2017-04-01T00:49:46.009Z,11.02
2017-04-01T00:49:50.319Z,11.02
2017-04-01T00:49:54.622Z,11.02
2017-04-01T00:49:58.927Z,11.02
2017-04-01T00:50:03.550Z,11.02
2017-04-01T00:50:07.767Z,11.01
2017-04-01T00:50:12.190Z,11.01
2017-04-01T00:50:16.500Z,11.01
2017-04-01T00:50:20.925Z,11.01
2017-04-01T00:50:25.351Z,11.01
2017-04-01T00:50:29.778Z,11.01
2017-04-01T00:50:34.082Z,11.01
2017-04-01T00:50:38.509Z,10.99
2017-04-01T00:50:42.820Z,10.99
2017-04-01T00:50:47.006Z,11
2017-04-01T00:50:51.311Z,10.99
2017-04-01T00:50:55.619Z,10.99
2017-04-01T00:51:00.050Z,10.98
2017-04-01T00:51:04.557Z,10.98
2017-04-01T00:51:08.983Z,10.98
2017-04-01T00:51:13.407Z,10.98
2017-04-01T00:51:17.871Z,10.98
2017-04-01T00:51:22.180Z,10.97
2017-04-01T00:51:26.494Z,10.97
2017-04-01T00:51:30.806Z,10.97
2017-04-01T00:51:35.233Z,10.97
2017-04-01T00:51:39.541Z,10.96
2017-04-01T00:51:43.852Z,10.96
2017-04-01T00:51:48.285Z,10.96
2017-04-01T00:51:52.590Z,10.95
2017-04-01T00:51:57.017Z,10.95
2017-04-01T00:52:01.483Z,10.95
2017-04-01T00:52:05.910Z,10.95
2017-04-01T00:52:10.221Z,10.94
2017-04-01T00:52:14.408Z,10.94
2017-04-01T00:52:18.720Z,10.93
2017-04-01T00:52:23.025Z,10.93
2017-04-01T00:52:27.334Z,10.94
2017-04-01T00:52:31.528Z,10.93
2017-04-01T00:52:35.957Z,10.93
2017-04-01T00:52:40.393Z,10.91
2017-04-01T00:52:44.814Z,10.91
2017-04-01T00:52:49.127Z,10.91
2017-04-01T00:52:53.548Z,10.91
2017-04-01T00:52:57.855Z,10.9
2017-04-01T00:53:02.164Z,10.9
2017-04-01T00:53:06.364Z,10.89
2017-04-01T00:53:10.709Z,10.89
2017-04-01T00:53:15.129Z,10.88
2017-04-01T00:53:19.556Z,10.88
2017-04-01T00:53:23.982Z,10.87
2017-04-01T00:53:28.291Z,10.87
2017-04-01T00:53:32.592Z,10.86
2017-04-01T00:53:36.905Z,10.87
2017-04-01T00:53:41.223Z,10.87
2017-04-01T00:53:45.910Z,10.86
2017-04-01T00:53:50.217Z,10.86
2017-04-01T00:53:54.638Z,10.85
2017-04-01T00:53:59.068Z,10.84
2017-04-01T00:54:03.496Z,10.86
2017-04-01T00:54:07.800Z,10.84
2017-04-01T00:54:12.106Z,10.84
2017-04-01T00:54:16.419Z,10.84
2017-04-01T00:54:20.616Z,10.82
2017-04-01T00:54:24.802Z,10.82
2017-04-01T00:54:28.990Z,10.82
2017-04-01T00:54:33.190Z,10.82
2017-04-01T00:54:37.500Z,10.82
2017-04-01T00:54:41.922Z,10.82
2017-04-01T00:54:46.349Z,10.81
2017-04-01T00:54:50.541Z,10.81
2017-04-01T00:54:54.963Z,10.8
2017-04-01T00:54:59.386Z,10.8
2017-04-01T00:55:03.912Z,10.79
2017-04-01T00:55:08.335Z,10.79
2017-04-01T00:55:12.641Z,10.79
2017-04-01T00:55:17.066Z,10.78
2017-04-01T00:55:21.377Z,10.79
2017-04-01T00:55:25.813Z,10.78
2017-04-01T00:55:30.128Z,10.78
2017-04-01T00:55:34.437Z,10.78
2017-04-01T00:55:38.862Z,10.77
2017-04-01T00:55:43.290Z,10.77
2017-04-01T00:55:47.476Z,10.77
2017-04-01T00:55:51.897Z,10.76
2017-04-01T00:55:56.320Z,10.75
2017-04-01T00:56:00.628Z,10.76
2017-04-01T00:56:05.048Z,10.75
2017-04-01T00:56:09.126Z,10.75
2017-04-01T00:56:13.436Z,10.74
2017-04-01T00:56:17.867Z,10.74